Hauptseite
METAR-TAF:

METAR-TAF

Flughäfen :

Aeropuerto Internacional José Martí

Havanna, Kuba

Breite: 22-59N, Länge: 082-24W, Höhe: 59 m

Beobachtung

Neuester Wetterbericht von vor 23 Minuten, um 10:55 UTC
Windstille
Temperatur 16°C
Luftfeuchtigkeit 77%
Luftdruck 1022 hPa
Sichtweite: 9000 m
Leicht bewölkt in der Höhe von 3000 ft

METAR: MUHA 221055Z 00000KT 9000 FEW030 16/12 Q1022

Zeit: 06:18 (11:18 UTC)

Prognose

Neuester Wetterbericht von vor 6 Stunden und 18 Minuten, um 05:00 UTC
Gültige Prognose vom 22 um 06 UTC bis 23 um 06 UTC
Wind 3 kt aus unterschiedlichen Richtungen
Sichtweite: 9000 m
Aufgelockert bewölkt in der Höhe von 3000 ft
Übergehend zu
vom 22 um 16 UTC bis 22 um 18 UTC
Wind 12 kt aus Ost
Übergehend zu
vom 23 um 04 UTC bis 23 um 06 UTC
Wind 3 kt aus unterschiedlichen Richtungen

TAF: MUHA 220500Z 2206/2306 VRB03KT 9000 SCT030 BECMG 2216/2218 09012KT BECMG 2304/2306 VRB03KT

Wetterbeobachtungen und Prognosen von mehr als 4000 Flughäfen (METAR und TAF Bericht).

Die verfügbaren Stationen werden durch gelbe und rote Markierungen auf der Karte dargestellt.

Führen Sie die Maus auf sie, um den Namen der Station zu sehen.

Darauf klicken, um die Beobachtung von Wetterbeobachtungen und Prognosen zu sehen.

Um die Karte zu ändern : klicken Sie auf den grünen Tasten mit einem schwarzen Kreuz Zum Vergrößern, auf den grünen Button mit einem Gedankenstrich zu verkleinern, oder auf die grünen Pfeile für benachbarte Karten.


METAR-TAF: